KLAS/LAS METAR and TAF weather

Enter ICAO airport designator
Station Type Date Time Source
KLAS METAR 2021/07/28 18:56 UTC NOAA

KLAS 281856Z 11005KT 10SM FEW120 FEW160 SCT210 37/08 A3003 RMK AO2 SLP138 CB DSNT S T03720083


Station Type Date Time Source
KLAS Decoded METAR 2021/07/28 18:56 UTC NOAA

MCCARRAN INTERNATIONAL AIRPORT , NV, United States (KLAS) 36-07N 115-16W 636M
Jul 28, 2021 - 02:56 PM EDT / 2021.07.28 1856 UTC
Wind: from the ESE (110 degrees) at 6 MPH (5 KT):0
Visibility: 10 mile(s):0
Sky conditions: partly cloudy
Weather: Cumulonimbus clouds observed
Temperature: 99.0 F (37.2 C)
Heat index: 95.4 F (35.2 C):1
Dew Point: 46.9 F (8.3 C)
Relative Humidity: 17%
Pressure (altimeter): 30.03 in. Hg (1016 hPa)
ob: KLAS 281856Z 11005KT 10SM FEW120 FEW160 SCT210 37/08 A3003 RMK AO2 SLP138 CB DSNT S T03720083
cycle: 19

Station Type Date Time Source
KLAS TAF 2021/07/28 18:28 UTC NOAA

TAF KLAS 281726Z 2818/2924 VRB06KT P6SM FEW120 BKN250
FM282000 19007KT P6SM FEW150 SCT200
FM290200 21010KT P6SM FEW150 SCT200
FM290600 20007KT P6SM SCT200
FM291200 VRB05KT P6SM SCT150

Example: see airport list